sensor_id;sensor_type;location;lat;lon;timestamp;P1;durP1;ratioP1;P2;durP2;ratioP2
36259;SDS011;22296;50.824;5.644;2023-07-30T00:00:31;2.90;;;1.40;;
36259;SDS011;22296;50.824;5.644;2023-07-30T00:02:58;2.20;;;1.20;;
36259;SDS011;22296;50.824;5.644;2023-07-30T00:05:24;1.90;;;1.25;;
36259;SDS011;22296;50.824;5.644;2023-07-30T00:07:51;4.88;;;1.52;;
36259;SDS011;22296;50.824;5.644;2023-07-30T00:10:18;4.13;;;1.55;;
36259;SDS011;22296;50.824;5.644;2023-07-30T00:12:45;2.55;;;1.63;;
36259;SDS011;22296;50.824;5.644;2023-07-30T00:15:12;3.30;;;1.40;;
36259;SDS011;22296;50.824;5.644;2023-07-30T00:17:39;1.63;;;1.20;;
36259;SDS011;22296;50.824;5.644;2023-07-30T00:20:07;3.90;;;1.38;;
36259;SDS011;22296;50.824;5.644;2023-07-30T00:22:35;3.17;;;1.48;;
36259;SDS011;22296;50.824;5.644;2023-07-30T00:25:02;2.80;;;1.50;;
36259;SDS011;22296;50.824;5.644;2023-07-30T00:27:29;2.22;;;1.40;;
36259;SDS011;22296;50.824;5.644;2023-07-30T00:29:56;2.47;;;1.30;;
36259;SDS011;22296;50.824;5.644;2023-07-30T00:32:23;1.92;;;1.40;;
36259;SDS011;22296;50.824;5.644;2023-07-30T00:34:50;3.67;;;1.90;;
36259;SDS011;22296;50.824;5.644;2023-07-30T00:37:17;2.30;;;1.30;;
36259;SDS011;22296;50.824;5.644;2023-07-30T00:39:43;3.67;;;1.60;;
36259;SDS011;22296;50.824;5.644;2023-07-30T00:42:10;2.35;;;1.45;;
36259;SDS011;22296;50.824;5.644;2023-07-30T00:44:37;1.95;;;1.40;;
36259;SDS011;22296;50.824;5.644;2023-07-30T00:47:04;1.63;;;1.33;;
36259;SDS011;22296;50.824;5.644;2023-07-30T00:49:31;4.13;;;1.83;;
36259;SDS011;22296;50.824;5.644;2023-07-30T00:51:57;2.90;;;1.77;;
36259;SDS011;22296;50.824;5.644;2023-07-30T00:54:25;2.55;;;1.40;;
36259;SDS011;22296;50.824;5.644;2023-07-30T00:56:52;2.95;;;1.55;;
36259;SDS011;22296;50.824;5.644;2023-07-30T00:59:22;3.25;;;1.50;;
36259;SDS011;22296;50.824;5.644;2023-07-30T01:01:49;2.65;;;1.63;;
36259;SDS011;22296;50.824;5.644;2023-07-30T01:04:18;3.25;;;1.42;;
36259;SDS011;22296;50.824;5.644;2023-07-30T01:06:45;2.53;;;1.40;;
36259;SDS011;22296;50.824;5.644;2023-07-30T01:09:12;2.08;;;1.40;;
36259;SDS011;22296;50.824;5.644;2023-07-30T01:11:39;2.85;;;1.50;;
36259;SDS011;22296;50.824;5.644;2023-07-30T01:14:08;2.15;;;1.50;;
36259;SDS011;22296;50.824;5.644;2023-07-30T01:16:36;1.83;;;1.50;;
36259;SDS011;22296;50.824;5.644;2023-07-30T01:19:04;2.33;;;1.40;;
36259;SDS011;22296;50.824;5.644;2023-07-30T01:21:35;5.47;;;1.60;;
36259;SDS011;22296;50.824;5.644;2023-07-30T01:24:04;4.45;;;1.50;;
36259;SDS011;22296;50.824;5.644;2023-07-30T01:26:42;2.33;;;1.40;;
36259;SDS011;22296;50.824;5.644;2023-07-30T01:29:28;2.92;;;1.50;;
36259;SDS011;22296;50.824;5.644;2023-07-30T01:32:04;2.35;;;1.60;;
36259;SDS011;22296;50.824;5.644;2023-07-30T01:34:36;3.70;;;1.70;;
36259;SDS011;22296;50.824;5.644;2023-07-30T01:37:08;3.50;;;1.60;;
36259;SDS011;22296;50.824;5.644;2023-07-30T01:39:37;2.45;;;1.48;;
36259;SDS011;22296;50.824;5.644;2023-07-30T01:42:06;2.85;;;1.50;;
36259;SDS011;22296;50.824;5.644;2023-07-30T01:44:34;2.55;;;1.60;;
36259;SDS011;22296;50.824;5.644;2023-07-30T01:47:01;2.60;;;1.65;;
36259;SDS011;22296;50.824;5.644;2023-07-30T01:49:28;2.70;;;1.60;;
36259;SDS011;22296;50.824;5.644;2023-07-30T01:51:55;2.42;;;1.55;;
36259;SDS011;22296;50.824;5.644;2023-07-30T01:54:21;2.25;;;1.67;;
36259;SDS011;22296;50.824;5.644;2023-07-30T01:56:48;3.03;;;1.50;;
36259;SDS011;22296;50.824;5.644;2023-07-30T01:59:15;2.75;;;1.50;;
36259;SDS011;22296;50.824;5.644;2023-07-30T02:01:43;5.15;;;1.48;;
36259;SDS011;22296;50.824;5.644;2023-07-30T02:04:10;2.22;;;1.30;;
36259;SDS011;22296;50.824;5.644;2023-07-30T02:06:37;2.40;;;1.52;;
36259;SDS011;22296;50.824;5.644;2023-07-30T02:09:03;4.07;;;1.45;;
36259;SDS011;22296;50.824;5.644;2023-07-30T02:11:30;3.75;;;1.52;;
36259;SDS011;22296;50.824;5.644;2023-07-30T02:13:57;2.22;;;1.27;;
36259;SDS011;22296;50.824;5.644;2023-07-30T02:16:23;3.22;;;1.48;;
36259;SDS011;22296;50.824;5.644;2023-07-30T02:18:50;2.78;;;1.70;;
36259;SDS011;22296;50.824;5.644;2023-07-30T02:21:17;4.28;;;1.60;;
36259;SDS011;22296;50.824;5.644;2023-07-30T02:23:44;2.35;;;1.40;;
36259;SDS011;22296;50.824;5.644;2023-07-30T02:26:11;3.65;;;1.52;;
36259;SDS011;22296;50.824;5.644;2023-07-30T02:28:37;3.08;;;1.63;;
36259;SDS011;22296;50.824;5.644;2023-07-30T02:31:05;1.70;;;1.40;;
36259;SDS011;22296;50.824;5.644;2023-07-30T02:33:31;2.72;;;1.45;;
36259;SDS011;22296;50.824;5.644;2023-07-30T02:35:58;3.08;;;1.42;;
36259;SDS011;22296;50.824;5.644;2023-07-30T02:38:25;3.45;;;1.40;;
36259;SDS011;22296;50.824;5.644;2023-07-30T02:40:52;3.05;;;1.70;;
36259;SDS011;22296;50.824;5.644;2023-07-30T02:43:19;2.40;;;1.38;;
36259;SDS011;22296;50.824;5.644;2023-07-30T02:45:48;2.88;;;1.27;;
36259;SDS011;22296;50.824;5.644;2023-07-30T02:48:15;3.22;;;1.13;;
36259;SDS011;22296;50.824;5.644;2023-07-30T02:50:43;2.78;;;1.30;;
36259;SDS011;22296;50.824;5.644;2023-07-30T02:53:10;3.97;;;1.40;;
36259;SDS011;22296;50.824;5.644;2023-07-30T02:55:36;1.70;;;1.00;;
36259;SDS011;22296;50.824;5.644;2023-07-30T02:58:03;3.03;;;1.20;;
36259;SDS011;22296;50.824;5.644;2023-07-30T03:00:30;2.28;;;1.10;;
36259;SDS011;22296;50.824;5.644;2023-07-30T03:02:57;2.67;;;1.30;;
36259;SDS011;22296;50.824;5.644;2023-07-30T03:05:24;2.80;;;1.27;;
36259;SDS011;22296;50.824;5.644;2023-07-30T03:07:52;2.05;;;0.98;;
36259;SDS011;22296;50.824;5.644;2023-07-30T03:10:19;2.05;;;1.10;;
36259;SDS011;22296;50.824;5.644;2023-07-30T03:12:45;2.58;;;1.30;;
36259;SDS011;22296;50.824;5.644;2023-07-30T03:15:12;2.00;;;1.30;;
36259;SDS011;22296;50.824;5.644;2023-07-30T03:17:39;2.75;;;1.10;;
36259;SDS011;22296;50.824;5.644;2023-07-30T03:20:06;3.72;;;1.00;;
36259;SDS011;22296;50.824;5.644;2023-07-30T03:22:33;2.25;;;1.23;;
36259;SDS011;22296;50.824;5.644;2023-07-30T03:25:00;3.40;;;1.30;;
36259;SDS011;22296;50.824;5.644;2023-07-30T03:27:27;4.13;;;1.40;;
36259;SDS011;22296;50.824;5.644;2023-07-30T03:29:54;2.97;;;1.25;;
36259;SDS011;22296;50.824;5.644;2023-07-30T03:32:21;4.13;;;1.27;;
36259;SDS011;22296;50.824;5.644;2023-07-30T03:34:48;4.13;;;1.20;;
36259;SDS011;22296;50.824;5.644;2023-07-30T03:37:14;5.15;;;1.52;;
36259;SDS011;22296;50.824;5.644;2023-07-30T03:39:41;3.92;;;1.17;;
36259;SDS011;22296;50.824;5.644;2023-07-30T03:42:08;3.05;;;1.30;;
36259;SDS011;22296;50.824;5.644;2023-07-30T03:44:35;2.40;;;1.00;;
36259;SDS011;22296;50.824;5.644;2023-07-30T03:47:02;8.10;;;1.20;;
36259;SDS011;22296;50.824;5.644;2023-07-30T03:49:29;3.33;;;1.20;;
36259;SDS011;22296;50.824;5.644;2023-07-30T03:51:56;1.90;;;1.10;;
36259;SDS011;22296;50.824;5.644;2023-07-30T03:54:23;5.03;;;1.08;;
36259;SDS011;22296;50.824;5.644;2023-07-30T03:56:52;3.92;;;1.02;;
36259;SDS011;22296;50.824;5.644;2023-07-30T03:59:18;3.85;;;1.20;;
36259;SDS011;22296;50.824;5.644;2023-07-30T04:01:45;3.42;;;1.17;;
36259;SDS011;22296;50.824;5.644;2023-07-30T04:04:12;3.22;;;1.00;;
36259;SDS011;22296;50.824;5.644;2023-07-30T04:06:39;3.72;;;1.20;;
36259;SDS011;22296;50.824;5.644;2023-07-30T04:09:05;3.30;;;1.13;;
36259;SDS011;22296;50.824;5.644;2023-07-30T04:11:32;3.17;;;1.10;;
36259;SDS011;22296;50.824;5.644;2023-07-30T04:13:59;3.15;;;1.30;;
36259;SDS011;22296;50.824;5.644;2023-07-30T04:16:25;2.28;;;0.98;;
36259;SDS011;22296;50.824;5.644;2023-07-30T04:18:52;3.58;;;1.20;;
36259;SDS011;22296;50.824;5.644;2023-07-30T04:21:19;3.47;;;0.95;;
36259;SDS011;22296;50.824;5.644;2023-07-30T04:23:46;2.83;;;1.20;;
36259;SDS011;22296;50.824;5.644;2023-07-30T04:26:13;3.60;;;1.00;;
36259;SDS011;22296;50.824;5.644;2023-07-30T04:28:39;3.22;;;1.23;;
36259;SDS011;22296;50.824;5.644;2023-07-30T04:31:06;2.95;;;1.10;;
36259;SDS011;22296;50.824;5.644;2023-07-30T04:33:33;3.58;;;1.10;;
36259;SDS011;22296;50.824;5.644;2023-07-30T04:36:01;2.25;;;1.23;;
36259;SDS011;22296;50.824;5.644;2023-07-30T04:38:28;2.30;;;1.00;;
36259;SDS011;22296;50.824;5.644;2023-07-30T04:40:58;3.50;;;0.95;;
36259;SDS011;22296;50.824;5.644;2023-07-30T04:43:26;1.63;;;0.80;;
36259;SDS011;22296;50.824;5.644;2023-07-30T04:45:56;3.08;;;1.20;;
36259;SDS011;22296;50.824;5.644;2023-07-30T04:48:24;2.80;;;0.90;;
36259;SDS011;22296;50.824;5.644;2023-07-30T04:50:51;1.95;;;0.95;;
36259;SDS011;22296;50.824;5.644;2023-07-30T04:53:18;1.83;;;0.90;;
36259;SDS011;22296;50.824;5.644;2023-07-30T04:55:47;1.67;;;0.82;;
36259;SDS011;22296;50.824;5.644;2023-07-30T04:58:14;2.28;;;1.00;;
36259;SDS011;22296;50.824;5.644;2023-07-30T05:00:41;2.90;;;1.10;;
36259;SDS011;22296;50.824;5.644;2023-07-30T05:03:08;1.30;;;0.88;;
36259;SDS011;22296;50.824;5.644;2023-07-30T05:05:36;1.88;;;0.93;;
36259;SDS011;22296;50.824;5.644;2023-07-30T05:08:03;1.63;;;0.82;;
36259;SDS011;22296;50.824;5.644;2023-07-30T05:10:29;3.88;;;0.93;;
36259;SDS011;22296;50.824;5.644;2023-07-30T05:12:56;2.03;;;0.90;;
36259;SDS011;22296;50.824;5.644;2023-07-30T05:15:23;2.10;;;1.05;;
36259;SDS011;22296;50.824;5.644;2023-07-30T05:17:50;1.30;;;0.88;;
36259;SDS011;22296;50.824;5.644;2023-07-30T05:20:16;1.27;;;0.85;;
36259;SDS011;22296;50.824;5.644;2023-07-30T05:22:43;1.67;;;0.80;;
36259;SDS011;22296;50.824;5.644;2023-07-30T05:25:10;3.20;;;0.82;;
36259;SDS011;22296;50.824;5.644;2023-07-30T05:27:36;1.85;;;0.90;;
36259;SDS011;22296;50.824;5.644;2023-07-30T05:30:03;1.42;;;0.80;;
36259;SDS011;22296;50.824;5.644;2023-07-30T05:32:31;1.60;;;0.77;;
36259;SDS011;22296;50.824;5.644;2023-07-30T05:34:57;3.60;;;0.80;;
36259;SDS011;22296;50.824;5.644;2023-07-30T05:37:24;1.88;;;0.90;;
36259;SDS011;22296;50.824;5.644;2023-07-30T05:39:51;1.88;;;1.00;;
36259;SDS011;22296;50.824;5.644;2023-07-30T05:42:18;1.83;;;0.85;;
36259;SDS011;22296;50.824;5.644;2023-07-30T05:44:45;1.17;;;0.70;;
36259;SDS011;22296;50.824;5.644;2023-07-30T05:47:12;2.25;;;0.85;;
36259;SDS011;22296;50.824;5.644;2023-07-30T05:49:39;1.58;;;0.95;;
36259;SDS011;22296;50.824;5.644;2023-07-30T05:52:05;4.55;;;1.00;;
36259;SDS011;22296;50.824;5.644;2023-07-30T05:54:32;4.78;;;1.15;;
36259;SDS011;22296;50.824;5.644;2023-07-30T05:56:59;1.83;;;0.90;;
36259;SDS011;22296;50.824;5.644;2023-07-30T05:59:25;4.55;;;0.88;;
36259;SDS011;22296;50.824;5.644;2023-07-30T06:01:52;1.40;;;0.90;;
36259;SDS011;22296;50.824;5.644;2023-07-30T06:04:22;1.75;;;0.80;;
36259;SDS011;22296;50.824;5.644;2023-07-30T06:06:49;1.95;;;0.82;;
36259;SDS011;22296;50.824;5.644;2023-07-30T06:09:15;2.17;;;0.68;;
36259;SDS011;22296;50.824;5.644;2023-07-30T06:11:42;1.45;;;0.85;;
36259;SDS011;22296;50.824;5.644;2023-07-30T06:14:09;2.42;;;0.70;;
36259;SDS011;22296;50.824;5.644;2023-07-30T06:16:36;3.40;;;0.70;;
36259;SDS011;22296;50.824;5.644;2023-07-30T06:19:03;1.77;;;0.80;;
36259;SDS011;22296;50.824;5.644;2023-07-30T06:21:30;2.88;;;1.10;;
36259;SDS011;22296;50.824;5.644;2023-07-30T06:23:56;2.05;;;0.90;;
36259;SDS011;22296;50.824;5.644;2023-07-30T06:26:23;1.88;;;0.90;;
36259;SDS011;22296;50.824;5.644;2023-07-30T06:28:50;1.88;;;0.60;;
36259;SDS011;22296;50.824;5.644;2023-07-30T06:31:17;2.13;;;0.85;;
36259;SDS011;22296;50.824;5.644;2023-07-30T06:33:43;1.50;;;0.80;;
36259;SDS011;22296;50.824;5.644;2023-07-30T06:36:10;1.60;;;0.73;;
36259;SDS011;22296;50.824;5.644;2023-07-30T06:38:37;2.70;;;0.88;;
36259;SDS011;22296;50.824;5.644;2023-07-30T06:41:04;2.38;;;0.55;;
36259;SDS011;22296;50.824;5.644;2023-07-30T06:43:31;3.15;;;0.90;;
36259;SDS011;22296;50.824;5.644;2023-07-30T06:45:58;3.63;;;0.93;;
36259;SDS011;22296;50.824;5.644;2023-07-30T06:48:25;2.25;;;0.90;;
36259;SDS011;22296;50.824;5.644;2023-07-30T06:50:52;2.58;;;0.90;;
36259;SDS011;22296;50.824;5.644;2023-07-30T06:53:19;3.03;;;1.00;;
36259;SDS011;22296;50.824;5.644;2023-07-30T06:55:45;3.42;;;1.10;;
36259;SDS011;22296;50.824;5.644;2023-07-30T06:58:12;4.10;;;0.90;;
36259;SDS011;22296;50.824;5.644;2023-07-30T07:00:40;2.53;;;1.33;;
36259;SDS011;22296;50.824;5.644;2023-07-30T07:03:07;3.03;;;1.30;;
36259;SDS011;22296;50.824;5.644;2023-07-30T07:05:35;2.72;;;0.90;;
36259;SDS011;22296;50.824;5.644;2023-07-30T07:08:02;2.63;;;0.80;;
36259;SDS011;22296;50.824;5.644;2023-07-30T07:10:29;3.05;;;0.80;;
36259;SDS011;22296;50.824;5.644;2023-07-30T07:12:56;2.95;;;0.98;;
36259;SDS011;22296;50.824;5.644;2023-07-30T07:15:22;3.03;;;0.80;;
36259;SDS011;22296;50.824;5.644;2023-07-30T07:17:49;4.90;;;1.30;;
36259;SDS011;22296;50.824;5.644;2023-07-30T07:20:16;3.97;;;1.05;;
36259;SDS011;22296;50.824;5.644;2023-07-30T07:22:43;7.38;;;1.30;;
36259;SDS011;22296;50.824;5.644;2023-07-30T07:25:10;8.85;;;1.73;;
36259;SDS011;22296;50.824;5.644;2023-07-30T07:27:37;7.20;;;1.38;;
36259;SDS011;22296;50.824;5.644;2023-07-30T07:30:04;5.95;;;1.25;;
36259;SDS011;22296;50.824;5.644;2023-07-30T07:32:31;3.00;;;1.15;;
36259;SDS011;22296;50.824;5.644;2023-07-30T07:35:04;5.65;;;1.50;;
36259;SDS011;22296;50.824;5.644;2023-07-30T07:37:32;12.25;;;2.00;;
36259;SDS011;22296;50.824;5.644;2023-07-30T07:39:59;5.93;;;1.20;;
36259;SDS011;22296;50.824;5.644;2023-07-30T07:42:27;4.93;;;1.20;;
36259;SDS011;22296;50.824;5.644;2023-07-30T07:44:54;4.53;;;1.13;;
36259;SDS011;22296;50.824;5.644;2023-07-30T07:47:20;4.28;;;1.17;;
36259;SDS011;22296;50.824;5.644;2023-07-30T07:49:47;4.80;;;1.40;;
36259;SDS011;22296;50.824;5.644;2023-07-30T07:52:15;5.53;;;1.40;;
36259;SDS011;22296;50.824;5.644;2023-07-30T07:54:42;5.75;;;1.50;;
36259;SDS011;22296;50.824;5.644;2023-07-30T07:57:09;3.83;;;1.10;;
36259;SDS011;22296;50.824;5.644;2023-07-30T07:59:36;4.53;;;1.20;;
36259;SDS011;22296;50.824;5.644;2023-07-30T08:02:03;3.92;;;1.33;;
36259;SDS011;22296;50.824;5.644;2023-07-30T08:04:30;4.10;;;1.30;;
36259;SDS011;22296;50.824;5.644;2023-07-30T08:06:57;5.85;;;1.08;;
36259;SDS011;22296;50.824;5.644;2023-07-30T08:09:26;7.78;;;1.80;;
36259;SDS011;22296;50.824;5.644;2023-07-30T08:11:53;3.92;;;1.20;;
36259;SDS011;22296;50.824;5.644;2023-07-30T08:14:20;4.03;;;1.50;;
36259;SDS011;22296;50.824;5.644;2023-07-30T08:16:47;7.40;;;1.60;;
36259;SDS011;22296;50.824;5.644;2023-07-30T08:19:14;3.15;;;1.27;;
36259;SDS011;22296;50.824;5.644;2023-07-30T08:21:41;5.82;;;1.73;;
36259;SDS011;22296;50.824;5.644;2023-07-30T08:24:08;6.50;;;1.40;;
36259;SDS011;22296;50.824;5.644;2023-07-30T08:26:35;5.35;;;1.50;;
36259;SDS011;22296;50.824;5.644;2023-07-30T08:29:01;4.80;;;1.60;;
36259;SDS011;22296;50.824;5.644;2023-07-30T08:31:29;5.00;;;1.60;;
36259;SDS011;22296;50.824;5.644;2023-07-30T08:33:56;4.60;;;1.63;;
36259;SDS011;22296;50.824;5.644;2023-07-30T08:36:22;3.17;;;1.27;;
36259;SDS011;22296;50.824;5.644;2023-07-30T08:38:49;5.63;;;1.40;;
36259;SDS011;22296;50.824;5.644;2023-07-30T08:41:16;4.90;;;1.67;;
36259;SDS011;22296;50.824;5.644;2023-07-30T08:43:44;7.10;;;1.52;;
36259;SDS011;22296;50.824;5.644;2023-07-30T08:46:15;5.47;;;1.70;;
36259;SDS011;22296;50.824;5.644;2023-07-30T08:48:42;7.10;;;1.65;;
36259;SDS011;22296;50.824;5.644;2023-07-30T08:51:13;4.53;;;1.65;;
36259;SDS011;22296;50.824;5.644;2023-07-30T08:53:41;7.03;;;1.90;;
36259;SDS011;22296;50.824;5.644;2023-07-30T08:56:09;4.40;;;1.95;;
36259;SDS011;22296;50.824;5.644;2023-07-30T08:58:35;4.43;;;1.40;;
36259;SDS011;22296;50.824;5.644;2023-07-30T09:01:06;5.50;;;1.25;;
36259;SDS011;22296;50.824;5.644;2023-07-30T09:03:38;3.17;;;1.30;;
36259;SDS011;22296;50.824;5.644;2023-07-30T09:06:07;5.85;;;1.52;;
36259;SDS011;22296;50.824;5.644;2023-07-30T09:08:34;4.97;;;1.83;;
36259;SDS011;22296;50.824;5.644;2023-07-30T09:11:08;3.85;;;1.70;;
36259;SDS011;22296;50.824;5.644;2023-07-30T09:13:39;6.03;;;1.17;;
36259;SDS011;22296;50.824;5.644;2023-07-30T09:16:14;4.63;;;1.40;;
36259;SDS011;22296;50.824;5.644;2023-07-30T09:18:42;4.63;;;1.75;;
36259;SDS011;22296;50.824;5.644;2023-07-30T09:23:41;5.90;;;2.08;;
36259;SDS011;22296;50.824;5.644;2023-07-30T09:26:09;7.97;;;1.77;;
36259;SDS011;22296;50.824;5.644;2023-07-30T09:28:37;5.33;;;1.67;;
36259;SDS011;22296;50.824;5.644;2023-07-30T09:31:04;5.38;;;1.35;;
36259;SDS011;22296;50.824;5.644;2023-07-30T09:33:47;5.43;;;1.50;;
36259;SDS011;22296;50.824;5.644;2023-07-30T09:36:14;5.05;;;2.03;;
36259;SDS011;22296;50.824;5.644;2023-07-30T09:38:42;4.85;;;1.38;;
36259;SDS011;22296;50.824;5.644;2023-07-30T09:41:10;5.60;;;1.30;;
36259;SDS011;22296;50.824;5.644;2023-07-30T09:43:38;4.70;;;1.55;;
36259;SDS011;22296;50.824;5.644;2023-07-30T09:46:06;4.22;;;1.40;;
36259;SDS011;22296;50.824;5.644;2023-07-30T09:48:34;5.30;;;1.30;;
36259;SDS011;22296;50.824;5.644;2023-07-30T09:51:01;4.95;;;1.70;;
36259;SDS011;22296;50.824;5.644;2023-07-30T09:53:29;4.63;;;1.43;;
36259;SDS011;22296;50.824;5.644;2023-07-30T09:56:02;5.40;;;1.48;;
36259;SDS011;22296;50.824;5.644;2023-07-30T09:58:30;4.80;;;1.40;;
36259;SDS011;22296;50.824;5.644;2023-07-30T10:00:57;4.30;;;1.17;;
36259;SDS011;22296;50.824;5.644;2023-07-30T10:03:26;4.88;;;1.45;;
36259;SDS011;22296;50.824;5.644;2023-07-30T10:05:55;3.43;;;1.27;;
36259;SDS011;22296;50.824;5.644;2023-07-30T10:08:29;4.57;;;1.30;;
36259;SDS011;22296;50.824;5.644;2023-07-30T10:11:00;3.22;;;1.17;;
36259;SDS011;22296;50.824;5.644;2023-07-30T10:13:31;3.20;;;1.10;;
36259;SDS011;22296;50.824;5.644;2023-07-30T10:15:58;6.10;;;1.48;;
36259;SDS011;22296;50.824;5.644;2023-07-30T10:18:32;4.90;;;1.40;;
36259;SDS011;22296;50.824;5.644;2023-07-30T10:21:04;3.85;;;1.13;;
36259;SDS011;22296;50.824;5.644;2023-07-30T10:23:35;3.45;;;1.23;;
36259;SDS011;22296;50.824;5.644;2023-07-30T10:26:12;6.40;;;1.50;;
36259;SDS011;22296;50.824;5.644;2023-07-30T10:28:39;3.85;;;1.27;;
36259;SDS011;22296;50.824;5.644;2023-07-30T10:31:10;5.30;;;1.27;;
36259;SDS011;22296;50.824;5.644;2023-07-30T10:36:18;2.95;;;1.15;;
36259;SDS011;22296;50.824;5.644;2023-07-30T10:38:56;5.18;;;1.20;;
36259;SDS011;22296;50.824;5.644;2023-07-30T10:41:23;3.38;;;1.33;;
36259;SDS011;22296;50.824;5.644;2023-07-30T10:43:50;4.40;;;1.45;;
36259;SDS011;22296;50.824;5.644;2023-07-30T10:46:18;1.70;;;0.93;;
36259;SDS011;22296;50.824;5.644;2023-07-30T10:48:46;2.67;;;1.13;;
36259;SDS011;22296;50.824;5.644;2023-07-30T10:51:15;5.45;;;1.15;;
36259;SDS011;22296;50.824;5.644;2023-07-30T10:53:44;4.32;;;1.58;;
36259;SDS011;22296;50.824;5.644;2023-07-30T10:56:13;4.27;;;1.10;;
36259;SDS011;22296;50.824;5.644;2023-07-30T10:58:41;7.13;;;1.70;;
36259;SDS011;22296;50.824;5.644;2023-07-30T11:01:09;3.78;;;1.10;;
36259;SDS011;22296;50.824;5.644;2023-07-30T11:03:37;4.45;;;1.30;;
36259;SDS011;22296;50.824;5.644;2023-07-30T11:06:06;4.18;;;1.40;;
36259;SDS011;22296;50.824;5.644;2023-07-30T11:11:04;4.03;;;1.00;;
36259;SDS011;22296;50.824;5.644;2023-07-30T11:13:50;4.50;;;1.20;;
36259;SDS011;22296;50.824;5.644;2023-07-30T11:16:17;3.08;;;1.20;;
36259;SDS011;22296;50.824;5.644;2023-07-30T11:18:44;3.03;;;1.10;;
36259;SDS011;22296;50.824;5.644;2023-07-30T11:21:14;3.38;;;1.00;;
36259;SDS011;22296;50.824;5.644;2023-07-30T11:23:43;3.78;;;1.00;;
36259;SDS011;22296;50.824;5.644;2023-07-30T11:26:17;4.40;;;1.40;;
36259;SDS011;22296;50.824;5.644;2023-07-30T11:28:45;6.13;;;1.45;;
36259;SDS011;22296;50.824;5.644;2023-07-30T11:31:19;3.25;;;1.20;;
36259;SDS011;22296;50.824;5.644;2023-07-30T11:33:48;2.78;;;1.17;;
36259;SDS011;22296;50.824;5.644;2023-07-30T11:36:16;4.38;;;1.33;;
36259;SDS011;22296;50.824;5.644;2023-07-30T11:38:46;3.15;;;0.98;;
36259;SDS011;22296;50.824;5.644;2023-07-30T11:41:13;3.90;;;1.33;;
36259;SDS011;22296;50.824;5.644;2023-07-30T11:43:41;3.58;;;1.17;;
36259;SDS011;22296;50.824;5.644;2023-07-30T11:46:13;5.63;;;1.52;;
36259;SDS011;22296;50.824;5.644;2023-07-30T11:48:41;5.22;;;1.40;;
36259;SDS011;22296;50.824;5.644;2023-07-30T11:53:46;5.00;;;1.13;;
36259;SDS011;22296;50.824;5.644;2023-07-30T11:58:46;2.55;;;1.00;;
36259;SDS011;22296;50.824;5.644;2023-07-30T12:01:17;4.10;;;1.10;;
36259;SDS011;22296;50.824;5.644;2023-07-30T12:03:44;5.72;;;1.55;;
36259;SDS011;22296;50.824;5.644;2023-07-30T12:06:12;2.53;;;1.00;;
36259;SDS011;22296;50.824;5.644;2023-07-30T12:08:39;2.90;;;0.90;;
36259;SDS011;22296;50.824;5.644;2023-07-30T12:11:07;2.33;;;1.02;;
36259;SDS011;22296;50.824;5.644;2023-07-30T12:13:44;3.92;;;1.20;;
36259;SDS011;22296;50.824;5.644;2023-07-30T12:16:12;3.70;;;1.27;;
36259;SDS011;22296;50.824;5.644;2023-07-30T12:18:39;3.67;;;1.20;;
36259;SDS011;22296;50.824;5.644;2023-07-30T12:21:07;3.88;;;1.23;;
36259;SDS011;22296;50.824;5.644;2023-07-30T12:23:34;2.90;;;0.90;;
36259;SDS011;22296;50.824;5.644;2023-07-30T12:26:01;5.03;;;1.23;;
36259;SDS011;22296;50.824;5.644;2023-07-30T12:28:31;2.70;;;1.05;;
36259;SDS011;22296;50.824;5.644;2023-07-30T12:31:00;2.65;;;1.08;;
36259;SDS011;22296;50.824;5.644;2023-07-30T12:33:27;4.05;;;1.15;;
36259;SDS011;22296;50.824;5.644;2023-07-30T12:35:54;4.35;;;1.30;;
36259;SDS011;22296;50.824;5.644;2023-07-30T12:38:21;3.00;;;1.20;;
36259;SDS011;22296;50.824;5.644;2023-07-30T12:40:48;3.08;;;1.45;;
36259;SDS011;22296;50.824;5.644;2023-07-30T12:43:14;2.33;;;1.02;;
36259;SDS011;22296;50.824;5.644;2023-07-30T12:45:41;4.00;;;1.20;;
36259;SDS011;22296;50.824;5.644;2023-07-30T12:48:08;3.90;;;1.42;;
36259;SDS011;22296;50.824;5.644;2023-07-30T12:50:35;3.17;;;1.30;;
36259;SDS011;22296;50.824;5.644;2023-07-30T12:53:01;3.50;;;1.10;;
36259;SDS011;22296;50.824;5.644;2023-07-30T12:55:28;4.25;;;1.30;;
36259;SDS011;22296;50.824;5.644;2023-07-30T12:57:55;5.40;;;1.17;;
36259;SDS011;22296;50.824;5.644;2023-07-30T13:00:22;3.15;;;1.30;;
36259;SDS011;22296;50.824;5.644;2023-07-30T13:02:48;3.22;;;1.08;;
36259;SDS011;22296;50.824;5.644;2023-07-30T13:05:18;2.63;;;1.10;;
36259;SDS011;22296;50.824;5.644;2023-07-30T13:07:45;4.60;;;0.90;;
36259;SDS011;22296;50.824;5.644;2023-07-30T13:10:12;3.70;;;1.20;;
36259;SDS011;22296;50.824;5.644;2023-07-30T13:12:39;3.28;;;1.00;;
36259;SDS011;22296;50.824;5.644;2023-07-30T13:15:06;3.15;;;1.20;;
36259;SDS011;22296;50.824;5.644;2023-07-30T13:17:33;2.22;;;1.00;;
36259;SDS011;22296;50.824;5.644;2023-07-30T13:20:00;2.25;;;0.95;;
36259;SDS011;22296;50.824;5.644;2023-07-30T13:22:27;5.15;;;1.17;;
36259;SDS011;22296;50.824;5.644;2023-07-30T13:24:53;3.42;;;1.10;;
36259;SDS011;22296;50.824;5.644;2023-07-30T13:27:20;4.05;;;1.00;;
36259;SDS011;22296;50.824;5.644;2023-07-30T13:29:47;5.55;;;1.10;;
36259;SDS011;22296;50.824;5.644;2023-07-30T13:32:15;3.08;;;1.00;;
36259;SDS011;22296;50.824;5.644;2023-07-30T13:34:41;3.72;;;1.10;;
36259;SDS011;22296;50.824;5.644;2023-07-30T13:37:08;2.45;;;1.00;;
36259;SDS011;22296;50.824;5.644;2023-07-30T13:39:35;2.95;;;0.95;;
36259;SDS011;22296;50.824;5.644;2023-07-30T13:42:02;4.40;;;1.02;;
36259;SDS011;22296;50.824;5.644;2023-07-30T13:44:29;2.42;;;0.80;;
36259;SDS011;22296;50.824;5.644;2023-07-30T13:46:56;3.22;;;1.05;;
36259;SDS011;22296;50.824;5.644;2023-07-30T13:49:23;3.55;;;1.17;;
36259;SDS011;22296;50.824;5.644;2023-07-30T13:51:50;3.47;;;1.00;;
36259;SDS011;22296;50.824;5.644;2023-07-30T13:54:17;2.60;;;0.95;;
36259;SDS011;22296;50.824;5.644;2023-07-30T13:56:43;3.13;;;1.00;;
36259;SDS011;22296;50.824;5.644;2023-07-30T13:59:10;1.98;;;0.90;;
36259;SDS011;22296;50.824;5.644;2023-07-30T14:01:37;3.30;;;0.95;;
36259;SDS011;22296;50.824;5.644;2023-07-30T14:04:04;2.90;;;1.02;;
36259;SDS011;22296;50.824;5.644;2023-07-30T14:06:36;2.75;;;0.77;;
36259;SDS011;22296;50.824;5.644;2023-07-30T14:09:03;1.48;;;0.80;;
36259;SDS011;22296;50.824;5.644;2023-07-30T14:11:31;2.72;;;1.02;;
36259;SDS011;22296;50.824;5.644;2023-07-30T14:13:57;1.90;;;1.00;;
36259;SDS011;22296;50.824;5.644;2023-07-30T14:16:24;3.40;;;1.13;;
36259;SDS011;22296;50.824;5.644;2023-07-30T14:18:51;2.90;;;1.08;;
36259;SDS011;22296;50.824;5.644;2023-07-30T14:21:18;3.28;;;0.98;;
36259;SDS011;22296;50.824;5.644;2023-07-30T14:23:45;3.85;;;1.30;;
36259;SDS011;22296;50.824;5.644;2023-07-30T14:26:11;4.03;;;1.00;;
36259;SDS011;22296;50.824;5.644;2023-07-30T14:28:38;2.97;;;1.00;;
36259;SDS011;22296;50.824;5.644;2023-07-30T14:31:05;2.38;;;1.00;;
36259;SDS011;22296;50.824;5.644;2023-07-30T14:33:32;3.17;;;1.30;;
36259;SDS011;22296;50.824;5.644;2023-07-30T14:35:59;2.95;;;1.20;;
36259;SDS011;22296;50.824;5.644;2023-07-30T14:38:26;2.65;;;1.05;;
36259;SDS011;22296;50.824;5.644;2023-07-30T14:40:53;3.38;;;1.23;;
36259;SDS011;22296;50.824;5.644;2023-07-30T14:43:19;3.70;;;1.23;;
36259;SDS011;22296;50.824;5.644;2023-07-30T14:45:46;4.88;;;1.15;;
36259;SDS011;22296;50.824;5.644;2023-07-30T14:48:15;3.20;;;1.23;;
36259;SDS011;22296;50.824;5.644;2023-07-30T14:50:42;2.88;;;1.10;;
36259;SDS011;22296;50.824;5.644;2023-07-30T14:53:09;2.58;;;0.90;;
36259;SDS011;22296;50.824;5.644;2023-07-30T14:55:37;2.15;;;1.00;;
36259;SDS011;22296;50.824;5.644;2023-07-30T14:58:04;2.70;;;1.20;;
36259;SDS011;22296;50.824;5.644;2023-07-30T15:00:31;3.17;;;1.20;;
36259;SDS011;22296;50.824;5.644;2023-07-30T15:02:58;3.35;;;1.20;;